Time;durP1;ratioP1;P1;durP2;ratioP2;P2;SDS_P1;SDS_P2;PMS_P1;PMS_P2;Temp;Humidity;BMP_temperature;BMP_pressure;BME280_temperature;BME280_humidity;BME280_pressure;Samples;Min_cycle;Max_cycle;Signal;HPM_P1;HPM_P2
2023/10/17 00:01:52;;;;;;;6.87;4.57;;;4.00;99.90;;;;;;5027303;28;20210;-30
2023/10/17 00:06:48;;;;;;;6.77;5.00;;;4.00;99.90;;;;;;5002623;28;20192;-30
2023/10/17 00:09:26;;;;;;;5.50;4.70;;;4.00;99.90;;;;;;5006568;28;20249;-30
2023/10/17 00:14:34;;;;;;;5.50;4.33;;;3.90;99.90;;;;;;5003621;28;20184;-30
2023/10/17 00:17:03;;;;;;;6.07;4.60;;;3.80;99.90;;;;;;4988943;28;20203;-30
2023/10/17 00:19:32;;;;;;;5.50;4.43;;;3.90;99.90;;;;;;5008270;28;20214;-30
2023/10/17 00:22:04;;;;;;;5.97;4.30;;;3.80;99.90;;;;;;5029038;28;20189;-30
2023/10/17 00:24:30;;;;;;;7.40;4.47;;;3.80;99.90;;;;;;5012101;28;20203;-30
2023/10/17 00:26:56;;;;;;;5.63;4.57;;;3.70;99.90;;;;;;5003939;28;20190;-30
2023/10/17 00:29:22;;;;;;;6.10;4.30;;;3.70;99.90;;;;;;5011842;28;20231;-30
2023/10/17 00:31:48;;;;;;;5.40;4.27;;;3.70;99.90;;;;;;5012351;28;20187;-30
2023/10/17 00:34:17;;;;;;;6.93;4.40;;;3.70;99.90;;;;;;4996170;28;20218;-30
2023/10/17 00:36:49;;;;;;;4.47;3.73;;;3.60;99.90;;;;;;5002687;28;20207;-30
2023/10/17 00:39:29;;;;;;;5.77;4.60;;;3.50;99.90;;;;;;4996067;28;20206;-30
2023/10/17 00:44:44;;;;;;;5.10;4.50;;;3.40;99.90;;;;;;5016959;28;20514;-30
2023/10/17 00:47:11;;;;;;;6.63;4.20;;;3.50;99.90;;;;;;5011597;28;20190;-30
2023/10/17 00:49:42;;;;;;;6.27;3.97;;;3.50;99.90;;;;;;5009924;28;20211;-30
2023/10/17 00:52:34;;;;;;;6.60;4.53;;;3.40;99.90;;;;;;4997646;28;20190;-30
2023/10/17 00:55:03;;;;;;;5.30;4.50;;;3.40;99.90;;;;;;5017256;28;20257;-30
2023/10/17 00:57:29;;;;;;;7.70;4.50;;;3.30;99.90;;;;;;5007250;28;20200;-30
2023/10/17 00:59:57;;;;;;;8.13;4.53;;;3.20;99.90;;;;;;4997465;28;20659;-30
2023/10/17 01:02:29;;;;;;;5.40;4.67;;;3.20;99.90;;;;;;4993787;28;20175;-30
2023/10/17 01:04:59;;;;;;;7.13;4.60;;;3.20;99.90;;;;;;5013916;28;20183;-30
2023/10/17 01:07:34;;;;;;;4.10;3.70;;;3.20;99.90;;;;;;4977954;28;20184;-30
2023/10/17 01:10:10;;;;;;;5.03;3.60;;;3.10;99.90;;;;;;4987800;28;20261;-30
2023/10/17 01:12:45;;;;;;;7.17;4.43;;;3.10;99.90;;;;;;5013371;28;20286;-29
2023/10/17 01:15:30;;;;;;;5.37;4.10;;;3.00;99.90;;;;;;5028204;28;20226;-30
2023/10/17 01:18:06;;;;;;;5.00;4.10;;;3.00;99.90;;;;;;5003137;28;20207;-30
2023/10/17 01:20:34;;;;;;;5.97;4.43;;;3.00;99.90;;;;;;5008187;28;20210;-30
2023/10/17 01:23:04;;;;;;;4.83;3.93;;;2.90;99.90;;;;;;5021031;28;20187;-30
2023/10/17 01:25:29;;;;;;;5.03;4.10;;;3.00;99.90;;;;;;5020278;28;20271;-30
2023/10/17 01:27:59;;;;;;;6.43;5.00;;;3.00;99.90;;;;;;5008931;28;20274;-30
2023/10/17 01:30:29;;;;;;;5.40;4.07;;;2.90;99.90;;;;;;5020353;28;20210;-30
2023/10/17 01:32:56;;;;;;;7.80;4.67;;;2.90;99.90;;;;;;5019152;28;20191;-30
2023/10/17 01:35:23;;;;;;;5.97;4.10;;;2.90;99.90;;;;;;5010167;28;20190;-30
2023/10/17 01:37:49;;;;;;;6.97;4.50;;;2.80;99.90;;;;;;5018681;28;20210;-30
2023/10/17 01:40:28;;;;;;;6.10;4.57;;;2.80;99.90;;;;;;5010345;28;20206;-30
2023/10/17 01:42:58;;;;;;;4.87;4.10;;;2.80;99.90;;;;;;5008618;28;20179;-30
2023/10/17 01:45:29;;;;;;;4.87;4.23;;;2.80;99.90;;;;;;5021634;28;20293;-30
2023/10/17 01:47:55;;;;;;;4.93;4.43;;;2.80;99.90;;;;;;5002323;28;20214;-30
2023/10/17 01:50:25;;;;;;;5.47;4.10;;;2.80;99.90;;;;;;4993985;28;20203;-30
2023/10/17 01:52:53;;;;;;;4.73;3.67;;;2.80;99.90;;;;;;4999593;28;20194;-30
2023/10/17 01:55:24;;;;;;;4.57;3.97;;;2.80;99.90;;;;;;5004718;28;20185;-30
2023/10/17 01:57:54;;;;;;;4.30;3.90;;;2.80;99.90;;;;;;5015808;28;20253;-30
2023/10/17 02:03:05;;;;;;;5.67;4.27;;;2.80;99.90;;;;;;5014799;28;20179;-29
2023/10/17 02:05:34;;;;;;;6.00;4.07;;;2.80;99.90;;;;;;5022365;28;20181;-30
2023/10/17 02:08:00;;;;;;;8.03;4.77;;;2.80;99.90;;;;;;5035012;28;20180;-30
2023/10/17 02:10:28;;;;;;;6.23;4.43;;;2.80;99.90;;;;;;5010960;28;20225;-30
2023/10/17 02:12:54;;;;;;;13.73;8.63;;;2.80;99.90;;;;;;4999303;28;20179;-30
2023/10/17 02:15:23;;;;;;;5.77;5.00;;;2.70;99.90;;;;;;5006957;28;20194;-30
2023/10/17 02:17:53;;;;;;;6.40;4.93;;;2.70;99.90;;;;;;4986923;28;20214;-30
2023/10/17 02:20:29;;;;;;;4.90;4.20;;;2.70;99.90;;;;;;4983272;28;20291;-30
2023/10/17 02:23:19;;;;;;;6.27;4.80;;;2.70;99.90;;;;;;5004182;28;20221;-30
2023/10/17 02:25:50;;;;;;;7.27;4.27;;;2.70;99.90;;;;;;4993993;28;20179;-30
2023/10/17 02:28:16;;;;;;;6.67;4.63;;;2.50;99.90;;;;;;4993406;28;20252;-30
2023/10/17 02:30:45;;;;;;;5.30;4.70;;;2.40;99.90;;;;;;5009268;28;20203;-30
2023/10/17 02:33:17;;;;;;;5.90;4.30;;;2.30;99.90;;;;;;5002136;28;20179;-30
2023/10/17 02:36:08;;;;;;;5.97;4.83;;;2.30;99.90;;;;;;5019117;28;20186;-30
2023/10/17 02:38:34;;;;;;;10.03;5.03;;;2.10;99.90;;;;;;4997192;28;20187;-30
2023/10/17 02:41:01;;;;;;;5.97;4.73;;;2.10;99.90;;;;;;4991324;28;20207;-30
2023/10/17 02:43:29;;;;;;;8.43;4.67;;;2.20;99.90;;;;;;4994890;28;20179;-30
2023/10/17 02:45:59;;;;;;;4.90;4.17;;;2.40;99.90;;;;;;5014998;28;20189;-30
2023/10/17 02:48:37;;;;;;;4.70;4.17;;;2.50;99.90;;;;;;5008277;28;20186;-30
2023/10/17 02:53:52;;;;;;;7.00;4.90;;;2.70;99.90;;;;;;5007516;28;20282;-30
2023/10/17 02:56:19;;;;;;;5.73;4.50;;;2.70;99.90;;;;;;5001639;28;20257;-30
2023/10/17 02:58:59;;;;;;;5.23;4.43;;;2.80;99.90;;;;;;5002769;28;20192;-30
2023/10/17 03:01:27;;;;;;;5.00;4.00;;;2.80;99.90;;;;;;4998638;28;20188;-30
2023/10/17 03:03:53;;;;;;;5.67;4.13;;;2.70;99.90;;;;;;4995713;28;20278;-30
2023/10/17 03:06:19;;;;;;;6.10;4.63;;;2.70;99.90;;;;;;5030846;28;20209;-30
2023/10/17 03:08:51;;;;;;;4.83;3.67;;;2.70;99.90;;;;;;5019782;28;20266;-30
2023/10/17 03:11:35;;;;;;;5.83;4.07;;;2.70;99.90;;;;;;4999363;28;20202;-29
2023/10/17 03:14:12;;;;;;;6.57;4.47;;;2.70;99.90;;;;;;4992718;28;20262;-29
2023/10/17 03:16:43;;;;;;;5.57;4.37;;;2.60;99.90;;;;;;5030210;28;20292;-30
2023/10/17 03:19:12;;;;;;;4.43;3.87;;;2.60;99.90;;;;;;5000882;28;20210;-30
2023/10/17 03:21:43;;;;;;;4.73;3.93;;;2.50;99.90;;;;;;5009110;28;20241;-30
2023/10/17 03:24:09;;;;;;;4.77;3.87;;;2.50;99.90;;;;;;5010916;28;20184;-29
2023/10/17 03:26:54;;;;;;;6.43;4.47;;;2.40;99.90;;;;;;5022805;28;20185;-30
2023/10/17 03:29:23;;;;;;;7.87;5.13;;;2.40;99.90;;;;;;5011878;28;20213;-29
2023/10/17 03:31:58;;;;;;;7.37;4.50;;;2.30;99.90;;;;;;5020029;28;20209;-30
2023/10/17 03:34:35;;;;;;;5.77;4.33;;;2.30;99.90;;;;;;5001083;28;20189;-30
2023/10/17 03:46:34;;;;;;;6.53;5.20;;;2.30;99.90;;;;;;5024714;28;20179;-29
2023/10/17 03:49:06;;;;;;;6.20;4.63;;;2.30;99.90;;;;;;5024318;28;20207;-30
2023/10/17 03:51:39;;;;;;;6.77;4.80;;;2.30;99.90;;;;;;5023110;28;20191;-28
2023/10/17 03:54:20;;;;;;;5.37;4.47;;;2.30;99.90;;;;;;5021998;28;20179;-29
2023/10/17 03:57:02;;;;;;;5.97;4.80;;;2.40;99.90;;;;;;5007911;28;20230;-29
2023/10/17 03:59:38;;;;;;;6.03;5.10;;;2.50;99.90;;;;;;5016908;28;20203;-29
2023/10/17 04:02:04;;;;;;;6.10;4.83;;;2.50;99.90;;;;;;4998736;28;20206;-29
2023/10/17 04:04:36;;;;;;;8.40;5.87;;;2.50;99.90;;;;;;5004920;28;20213;-30
2023/10/17 04:07:05;;;;;;;7.03;6.13;;;2.40;99.90;;;;;;5022671;28;20183;-29
2023/10/17 04:09:37;;;;;;;7.63;6.53;;;2.40;99.90;;;;;;5014446;28;20250;-29
2023/10/17 04:12:03;;;;;;;7.70;6.57;;;2.40;99.90;;;;;;5008419;28;20190;-30
2023/10/17 04:14:33;;;;;;;8.30;6.60;;;2.40;99.90;;;;;;5010678;28;20214;-29
2023/10/17 04:17:02;;;;;;;8.50;6.03;;;2.50;99.90;;;;;;5022349;28;20229;-29
2023/10/17 04:19:31;;;;;;;9.20;6.00;;;2.40;99.90;;;;;;5019130;28;20199;-29
2023/10/17 04:24:36;;;;;;;6.07;5.10;;;2.40;99.90;;;;;;5013505;28;20187;-29
2023/10/17 04:27:22;;;;;;;7.37;5.17;;;2.40;99.90;;;;;;5003064;28;20186;-30
2023/10/17 04:29:51;;;;;;;6.90;5.37;;;2.50;99.90;;;;;;5019647;28;20257;-29
2023/10/17 04:32:20;;;;;;;8.30;5.63;;;2.40;99.90;;;;;;5010871;28;20196;-30
2023/10/17 04:34:46;;;;;;;6.07;4.80;;;2.30;99.90;;;;;;5008574;28;20183;-29
2023/10/17 04:38:03;;;;;;;5.73;4.43;;;2.40;99.90;;;;;;5017072;28;20211;-31
2023/10/17 04:40:28;;;;;;;8.67;4.73;;;2.30;99.90;;;;;;5041414;28;20211;-28
2023/10/17 04:45:20;;;;;;;5.17;4.43;;;2.10;99.90;;;;;;5024030;28;20269;-29
2023/10/17 04:47:46;;;;;;;8.80;5.27;;;2.10;99.90;;;;;;5012251;28;20213;-29
2023/10/17 04:50:12;;;;;;;5.57;4.43;;;2.10;99.90;;;;;;5001880;28;20210;-30
2023/10/17 04:52:44;;;;;;;6.67;4.90;;;2.00;99.90;;;;;;5020965;28;20290;-29
2023/10/17 04:55:22;;;;;;;5.97;4.83;;;2.00;99.90;;;;;;5006620;28;20187;-29
2023/10/17 04:57:58;;;;;;;8.23;5.27;;;1.90;99.90;;;;;;5013356;28;20210;-29
2023/10/17 05:04:13;;;;;;;7.37;5.30;;;2.10;99.90;;;;;;5017617;28;20687;-29
2023/10/17 06:17:21;;;;;;;9.03;6.13;;;2.60;99.90;;;;;;5015195;28;20214;-30
2023/10/17 06:19:49;;;;;;;7.17;5.43;;;2.60;99.90;;;;;;4988806;28;20201;-30
2023/10/17 06:33:35;;;;;;;8.57;5.50;;;2.70;99.90;;;;;;5000635;28;20209;-30
2023/10/17 06:36:13;;;;;;;7.70;5.40;;;2.70;99.90;;;;;;5002886;28;20187;-30
2023/10/17 06:38:46;;;;;;;7.80;5.37;;;2.70;99.90;;;;;;5002872;28;20187;-30
2023/10/17 06:41:27;;;;;;;11.17;7.70;;;2.70;99.90;;;;;;4996545;28;20307;-29
2023/10/17 06:44:08;;;;;;;13.20;8.57;;;2.80;99.90;;;;;;5011082;28;20781;-30
2023/10/17 06:46:55;;;;;;;13.17;8.37;;;2.80;99.90;;;;;;5016988;28;20270;-30
2023/10/17 06:54:51;;;;;;;9.03;6.03;;;2.90;99.90;;;;;;5002726;28;20191;-30
2023/10/17 06:57:20;;;;;;;8.43;6.47;;;2.90;99.90;;;;;;5008766;28;20230;-30
2023/10/17 06:59:51;;;;;;;7.83;5.67;;;3.00;99.90;;;;;;4997927;28;20202;-29
2023/10/17 07:02:41;;;;;;;7.83;6.03;;;3.10;99.90;;;;;;5012317;28;20193;-30
2023/10/17 07:05:08;;;;;;;7.67;5.97;;;3.10;99.90;;;;;;5033332;28;20182;-30
2023/10/17 07:07:45;;;;;;;8.20;6.07;;;3.20;99.90;;;;;;5025851;28;20210;-31
2023/10/17 07:10:24;;;;;;;8.90;6.20;;;3.20;99.90;;;;;;4993693;28;20229;-30
2023/10/17 07:13:27;;;;;;;7.33;6.17;;;3.20;99.90;;;;;;5017553;28;20198;-31
2023/10/17 07:15:54;;;;;;;9.17;6.50;;;3.10;99.90;;;;;;5023846;28;20190;-31
2023/10/17 07:23:43;;;;;;;8.77;6.17;;;3.30;99.90;;;;;;5014069;28;20174;-31
2023/10/17 07:26:38;;;;;;;11.23;6.30;;;3.40;99.90;;;;;;5005595;28;20188;-31
2023/10/17 07:28:59;;;;;;;8.57;6.27;;;3.40;99.90;;;;;;5010157;28;20183;-31
2023/10/17 07:31:26;;;;;;;9.90;6.40;;;3.40;99.90;;;;;;5013485;28;20187;-31
2023/10/17 07:34:16;;;;;;;8.03;6.00;;;3.50;99.90;;;;;;5016869;28;20233;-31
2023/10/17 07:36:43;;;;;;;8.77;6.20;;;3.50;99.90;;;;;;5021929;28;20306;-31
2023/10/17 07:39:59;;;;;;;7.43;6.20;;;3.70;99.90;;;;;;5014079;28;20222;-31
2023/10/17 07:42:14;;;;;;;8.67;6.60;;;3.70;99.90;;;;;;5004220;28;20678;-31
2023/10/17 07:44:43;;;;;;;9.93;6.87;;;3.80;99.90;;;;;;4993152;28;20186;-31
2023/10/17 07:47:19;;;;;;;9.90;7.63;;;3.90;99.90;;;;;;5025637;28;20194;-31
2023/10/17 07:49:48;;;;;;;7.97;6.27;;;4.00;99.90;;;;;;5017536;28;20214;-31
2023/10/17 07:52:17;;;;;;;9.97;7.17;;;4.10;99.90;;;;;;5012731;28;20191;-31
2023/10/17 07:54:57;;;;;;;9.83;6.93;;;4.20;99.90;;;;;;4997742;28;20198;-31
2023/10/17 07:57:36;;;;;;;9.00;6.70;;;4.30;99.90;;;;;;5003862;28;20214;-31
2023/10/17 08:00:24;;;;;;;8.87;7.13;;;4.40;99.90;;;;;;4999040;28;20203;-31
2023/10/17 08:02:51;;;;;;;10.97;6.73;;;4.60;99.90;;;;;;5015640;28;20297;-31
2023/10/17 08:05:23;;;;;;;9.40;7.20;;;4.70;99.90;;;;;;5005214;28;20201;-31
2023/10/17 08:07:49;;;;;;;8.30;6.43;;;4.70;99.90;;;;;;5028152;28;20194;-31
2023/10/17 08:10:35;;;;;;;7.60;6.43;;;4.90;99.90;;;;;;5012026;28;20218;-31
2023/10/17 08:13:02;;;;;;;10.30;7.17;;;4.90;99.90;;;;;;5018415;28;20184;-31
2023/10/17 08:15:52;;;;;;;8.40;7.17;;;5.10;99.90;;;;;;5021293;28;20237;-31
2023/10/17 08:18:22;;;;;;;11.27;7.37;;;5.20;99.90;;;;;;5011949;28;20208;-31
2023/10/17 08:23:27;;;;;;;8.47;7.00;;;5.50;99.90;;;;;;5020510;28;20183;-31
2023/10/17 08:26:00;;;;;;;10.07;8.00;;;5.50;99.90;;;;;;4985267;28;20184;-31
2023/10/17 08:28:50;;;;;;;9.07;7.70;;;5.70;99.90;;;;;;5025919;28;20184;-31
2023/10/17 08:39:27;;;;;;;8.60;7.27;;;5.80;99.90;;;;;;5017176;28;20716;-31
2023/10/17 08:42:14;;;;;;;10.47;8.07;;;5.80;99.90;;;;;;5013402;28;20189;-31
2023/10/17 08:44:46;;;;;;;10.07;7.83;;;5.90;99.90;;;;;;4995377;28;20194;-31
2023/10/17 08:47:16;;;;;;;10.70;8.23;;;6.10;99.90;;;;;;5012003;28;20196;-31
2023/10/17 08:49:47;;;;;;;12.03;8.20;;;6.30;99.90;;;;;;5008384;28;20208;-31
2023/10/17 08:52:27;;;;;;;12.17;8.40;;;6.30;99.90;;;;;;5015990;28;20239;-31
2023/10/17 08:54:53;;;;;;;10.03;8.10;;;6.40;99.90;;;;;;5015446;28;20201;-31
2023/10/17 08:57:20;;;;;;;12.63;8.93;;;6.50;99.90;;;;;;5030989;28;20235;-31
2023/10/17 09:02:28;;;;;;;11.20;8.63;;;6.70;99.90;;;;;;5036890;28;20178;-31
2023/10/17 09:05:05;;;;;;;11.50;9.53;;;6.80;99.90;;;;;;5016044;28;20191;-31
2023/10/17 09:07:46;;;;;;;12.10;9.60;;;6.90;99.90;;;;;;5011463;28;20187;-31
2023/10/17 09:10:20;;;;;;;12.60;9.60;;;7.10;99.90;;;;;;5450502;23;20216;-26
2023/10/17 09:15:49;;;;;;;11.40;9.37;;;7.20;99.90;;;;;;5008288;28;20182;-26
2023/10/17 09:18:28;;;;;;;12.83;9.67;;;7.30;99.90;;;;;;5000566;28;20269;-26
2023/10/17 09:21:03;;;;;;;13.43;9.57;;;7.40;99.90;;;;;;4985573;28;20194;-26
2023/10/17 09:23:30;;;;;;;13.53;9.83;;;7.50;99.90;;;;;;4993530;28;20182;-25
2023/10/17 09:25:58;;;;;;;14.63;10.43;;;7.60;99.90;;;;;;5005948;28;20210;-26
2023/10/17 09:28:25;;;;;;;15.23;10.47;;;7.70;99.90;;;;;;4975535;28;20195;-27
2023/10/17 09:31:12;;;;;;;14.67;11.43;;;7.80;99.90;;;;;;4985202;28;20221;-26
2023/10/17 09:33:48;;;;;;;14.20;10.90;;;7.90;99.90;;;;;;4991358;28;20280;-26
2023/10/17 09:36:17;;;;;;;17.07;11.60;;;8.00;99.90;;;;;;4972987;28;20230;-26
2023/10/17 09:38:44;;;;;;;14.87;11.37;;;8.10;99.90;;;;;;4984087;28;20238;-26
2023/10/17 09:41:11;;;;;;;14.77;10.47;;;8.20;99.90;;;;;;4991940;28;20196;-26
2023/10/17 09:43:38;;;;;;;15.80;11.43;;;8.20;99.90;;;;;;4975398;28;20295;-25
2023/10/17 09:46:14;;;;;;;17.23;12.27;;;8.30;99.90;;;;;;4990204;28;20224;-26
2023/10/17 09:48:42;;;;;;;14.87;11.50;;;8.40;99.90;;;;;;4973004;28;20188;-26
2023/10/17 09:51:14;;;;;;;15.30;10.47;;;8.40;99.90;;;;;;4991248;28;20261;-26
2023/10/17 09:53:43;;;;;;;12.43;9.87;;;8.60;99.90;;;;;;5000017;28;20188;-26
2023/10/17 09:56:31;;;;;;;13.17;10.17;;;8.60;99.90;;;;;;5006352;28;20186;-26
2023/10/17 09:59:03;;;;;;;15.13;10.30;;;8.80;99.90;;;;;;4984838;28;20267;-26
2023/10/17 10:01:31;;;;;;;13.47;10.70;;;9.00;99.90;;;;;;4992281;28;20203;-26
2023/10/17 10:04:01;;;;;;;12.77;10.20;;;9.00;99.90;;;;;;4993329;28;20223;-26
2023/10/17 10:06:34;;;;;;;14.20;10.83;;;9.10;99.90;;;;;;4975014;28;20191;-26
2023/10/17 10:09:06;;;;;;;13.20;10.67;;;9.20;99.90;;;;;;4992668;28;20180;-25
2023/10/17 10:11:51;;;;;;;16.10;11.47;;;9.30;99.90;;;;;;4990728;28;20246;-26
2023/10/17 10:14:36;;;;;;;12.97;10.07;;;9.50;99.90;;;;;;4991408;28;20202;-26
2023/10/17 10:17:03;;;;;;;12.43;10.23;;;9.70;99.90;;;;;;4991209;28;20204;-26
2023/10/17 10:19:53;;;;;;;13.10;10.60;;;9.80;99.90;;;;;;4992493;28;20187;-29
2023/10/17 10:22:18;;;;;;;14.20;10.87;;;10.00;99.90;;;;;;4998463;28;20182;-27
2023/10/17 10:24:49;;;;;;;11.57;9.60;;;10.10;99.90;;;;;;4991257;28;20183;-26
2023/10/17 10:27:16;;;;;;;11.70;10.10;;;10.20;99.90;;;;;;4985848;28;20179;-26
2023/10/17 10:29:42;;;;;;;11.20;9.53;;;10.30;99.90;;;;;;4974786;28;20246;-26
2023/10/17 10:32:33;;;;;;;12.37;9.97;;;10.40;99.90;;;;;;4974083;28;20188;-26
2023/10/17 10:35:00;;;;;;;11.20;9.90;;;10.40;99.90;;;;;;4965338;28;20247;-27
2023/10/17 10:37:26;;;;;;;11.00;9.77;;;10.40;99.90;;;;;;4988073;28;20672;-26
2023/10/17 10:40:17;;;;;;;13.83;9.27;;;10.50;99.90;;;;;;4987423;28;20228;-26
2023/10/17 10:42:50;;;;;;;14.03;9.10;;;10.80;99.90;;;;;;4988689;28;20181;-28
2023/10/17 10:45:31;;;;;;;12.17;9.43;;;10.90;99.90;;;;;;4987799;28;20181;-27
2023/10/17 10:47:58;;;;;;;11.20;9.80;;;11.00;99.90;;;;;;4982308;28;20190;-26
2023/10/17 10:50:29;;;;;;;11.80;9.53;;;10.90;99.90;;;;;;4976394;28;20226;-26
2023/10/17 10:52:56;;;;;;;11.53;9.37;;;10.90;99.90;;;;;;4986977;28;20192;-27
2023/10/17 10:55:25;;;;;;;11.67;9.33;;;11.00;99.90;;;;;;4988798;28;20197;-26
2023/10/17 10:57:52;;;;;;;11.67;9.90;;;11.20;99.90;;;;;;4989227;28;20217;-26
2023/10/17 11:00:18;;;;;;;12.73;9.70;;;11.40;99.90;;;;;;4986955;28;20283;-27
2023/10/17 11:02:44;;;;;;;9.87;8.87;;;11.60;99.90;;;;;;4987019;28;20204;-27
2023/10/17 11:05:16;;;;;;;13.23;9.00;;;11.80;99.90;;;;;;4970485;28;20642;-27
2023/10/17 11:07:42;;;;;;;11.17;8.60;;;11.80;99.90;;;;;;4985333;28;20280;-27
2023/10/17 11:10:11;;;;;;;11.40;7.70;;;11.90;99.90;;;;;;4987169;28;20203;-28
2023/10/17 11:12:38;;;;;;;10.97;8.57;;;12.10;99.90;;;;;;4987936;28;20211;-27
2023/10/17 11:15:14;;;;;;;8.87;7.87;;;12.20;99.90;;;;;;4988080;28;20183;-27
2023/10/17 11:17:42;;;;;;;11.00;8.60;;;12.30;99.90;;;;;;4986993;28;20217;-27
2023/10/17 11:20:14;;;;;;;8.43;7.60;;;12.40;99.90;;;;;;4988537;28;20221;-27
2023/10/17 11:22:45;;;;;;;12.23;8.47;;;12.50;99.90;;;;;;4973412;28;20273;-27
2023/10/17 11:25:31;;;;;;;11.43;7.87;;;12.40;99.90;;;;;;4989953;28;20175;-26
2023/10/17 11:28:06;;;;;;;9.23;7.60;;;12.40;99.90;;;;;;4975549;28;20194;-27
2023/10/17 11:30:40;;;;;;;8.80;6.70;;;12.50;99.90;;;;;;4986498;28;20203;-28
2023/10/17 11:33:10;;;;;;;8.70;7.07;;;12.60;99.90;;;;;;4986284;28;20191;-27
2023/10/17 11:35:37;;;;;;;10.47;8.73;;;12.70;99.90;;;;;;4986078;28;20191;-27
2023/10/17 11:38:33;;;;;;;11.47;8.73;;;12.80;99.90;;;;;;4993111;28;20246;-27
2023/10/17 11:41:04;;;;;;;12.83;9.67;;;13.00;99.90;;;;;;4976471;28;20240;-26
2023/10/17 11:43:42;;;;;;;9.33;8.33;;;13.00;99.90;;;;;;4982562;28;20194;-27
2023/10/17 11:46:18;;;;;;;13.10;9.40;;;13.10;99.90;;;;;;4990716;28;20259;-26
2023/10/17 11:48:44;;;;;;;10.17;8.63;;;13.10;99.90;;;;;;4983748;28;20271;-27
2023/10/17 11:51:17;;;;;;;12.43;9.37;;;13.00;99.90;;;;;;4988430;28;20287;-27
2023/10/17 11:54:08;;;;;;;12.17;10.87;;;12.90;99.90;;;;;;4987121;28;20195;-27
2023/10/17 11:56:39;;;;;;;12.13;9.27;;;12.90;99.90;;;;;;4987578;28;20230;-27
2023/10/17 11:59:13;;;;;;;12.73;10.70;;;12.80;99.90;;;;;;4989737;28;20180;-26
2023/10/17 12:01:38;;;;;;;10.63;8.57;;;12.70;99.90;;;;;;4988975;28;20191;-28
2023/10/17 12:04:08;;;;;;;10.60;9.17;;;12.60;99.90;;;;;;4972635;28;20184;-27
2023/10/17 12:06:34;;;;;;;11.43;9.73;;;12.60;99.90;;;;;;4992383;28;20194;-27
2023/10/17 12:09:23;;;;;;;13.53;9.10;;;12.70;99.90;;;;;;4992477;28;20193;-27
2023/10/17 12:11:50;;;;;;;10.20;8.13;;;12.70;99.90;;;;;;4993548;28;20215;-27
2023/10/17 12:14:19;;;;;;;11.37;9.37;;;12.80;99.90;;;;;;4975791;28;20215;-28
2023/10/17 12:16:53;;;;;;;12.33;9.50;;;12.90;99.90;;;;;;4971364;28;20207;-27
2023/10/17 12:19:26;;;;;;;13.47;9.73;;;12.90;99.90;;;;;;4975763;28;20184;-27
2023/10/17 12:21:53;;;;;;;11.53;10.20;;;12.90;99.90;;;;;;4990486;28;20168;-27
2023/10/17 12:24:34;;;;;;;11.60;9.67;;;12.90;99.90;;;;;;4988705;28;20176;-28
2023/10/17 12:27:01;;;;;;;11.73;9.60;;;12.90;99.90;;;;;;4976518;28;20179;-27
2023/10/17 12:29:29;;;;;;;12.00;9.07;;;12.90;99.90;;;;;;4978850;28;20228;-28
2023/10/17 12:31:59;;;;;;;11.30;8.80;;;13.00;99.90;;;;;;4990376;28;20214;-26
2023/10/17 12:34:27;;;;;;;11.80;9.70;;;13.00;99.90;;;;;;4986843;28;20195;-27
2023/10/17 12:36:53;;;;;;;11.20;9.40;;;13.10;99.90;;;;;;4987418;28;20215;-27
2023/10/17 12:39:20;;;;;;;10.13;8.53;;;13.00;99.90;;;;;;4985095;28;20257;-27
2023/10/17 12:41:46;;;;;;;8.77;7.37;;;13.00;99.90;;;;;;4997024;28;20273;-27
2023/10/17 12:44:17;;;;;;;8.17;7.00;;;13.20;99.90;;;;;;4971996;28;20216;-27
2023/10/17 12:46:44;;;;;;;8.90;7.03;;;13.40;99.90;;;;;;4977361;28;20184;-27
2023/10/17 12:49:10;;;;;;;9.07;7.67;;;13.50;99.90;;;;;;4990426;28;20184;-27
2023/10/17 12:51:38;;;;;;;10.23;7.20;;;13.70;99.90;;;;;;4989909;28;20274;-27
2023/10/17 12:54:04;;;;;;;8.10;6.83;;;13.80;99.90;;;;;;4988505;28;20188;-28
2023/10/17 12:56:31;;;;;;;9.03;6.53;;;13.90;99.90;;;;;;4990737;28;20231;-27
2023/10/17 12:58:56;;;;;;;7.87;6.93;;;14.00;99.90;;;;;;4979566;28;20180;-27
2023/10/17 13:01:24;;;;;;;10.10;7.30;;;14.10;99.90;;;;;;4990150;28;20202;-27
2023/10/17 13:03:53;;;;;;;8.03;7.20;;;14.20;99.90;;;;;;4992069;28;20183;-27
2023/10/17 13:06:25;;;;;;;9.10;6.90;;;14.20;99.90;;;;;;4985701;28;20203;-27
2023/10/17 13:08:57;;;;;;;8.40;6.80;;;14.30;99.90;;;;;;4991389;28;20184;-27
2023/10/17 13:11:27;;;;;;;9.77;7.90;;;14.40;99.90;;;;;;4973421;28;20215;-27
2023/10/17 13:13:54;;;;;;;10.80;8.87;;;14.50;99.90;;;;;;4985954;28;20271;-27
2023/10/17 13:16:23;;;;;;;10.17;8.23;;;14.40;99.90;;;;;;4991864;28;20196;-26
2023/10/17 13:18:50;;;;;;;11.17;8.83;;;14.50;99.90;;;;;;4982580;28;20270;-26
2023/10/17 13:21:17;;;;;;;10.23;8.53;;;14.50;99.90;;;;;;4984272;28;20196;-26
2023/10/17 13:23:44;;;;;;;10.30;8.47;;;14.40;99.90;;;;;;5006007;28;20274;-27
2023/10/17 13:26:11;;;;;;;10.10;7.60;;;14.40;99.90;;;;;;4990178;28;20191;-27
2023/10/17 13:28:38;;;;;;;10.63;7.87;;;14.40;99.90;;;;;;4991815;28;20206;-27
2023/10/17 13:31:16;;;;;;;9.83;8.13;;;14.40;99.90;;;;;;4991200;28;20216;-27
2023/10/17 13:33:49;;;;;;;11.67;8.67;;;14.50;99.90;;;;;;4993590;28;20180;-27
2023/10/17 13:36:20;;;;;;;10.27;8.90;;;14.60;99.90;;;;;;4985933;28;20188;-27
2023/10/17 13:38:48;;;;;;;11.90;8.87;;;14.60;99.90;;;;;;4976423;28;20240;-27
2023/10/17 13:41:17;;;;;;;12.57;8.80;;;14.90;99.90;;;;;;4991247;28;20208;-27
2023/10/17 13:43:47;;;;;;;12.00;9.70;;;15.20;99.90;;;;;;4992607;28;20191;-27
2023/10/17 13:46:16;;;;;;;8.87;7.33;;;15.30;99.90;;;;;;4974290;28;20203;-27
2023/10/17 13:48:50;;;;;;;9.43;8.47;;;15.50;99.90;;;;;;4988079;28;20199;-26
2023/10/17 13:51:18;;;;;;;10.70;8.40;;;15.70;99.90;;;;;;4990669;28;20302;-28
2023/10/17 13:53:48;;;;;;;8.70;7.80;;;15.90;99.90;;;;;;4987073;28;20191;-27
2023/10/17 13:56:16;;;;;;;9.37;7.43;;;16.10;99.90;;;;;;4990579;28;20180;-27
2023/10/17 13:58:42;;;;;;;10.53;8.17;;;16.30;99.90;;;;;;5008317;28;20291;-27
2023/10/17 14:03:56;;;;;;;8.95;7.28;;;16.50;99.90;;;;;;4991370;28;20195;-28
2023/10/17 14:06:23;;;;;;;9.07;7.80;;;16.50;99.90;;;;;;4969686;28;20188;-27
2023/10/17 14:08:50;;;;;;;9.00;7.35;;;16.50;99.90;;;;;;4991676;28;20180;-27
2023/10/17 14:11:18;;;;;;;8.37;7.47;;;16.30;99.90;;;;;;4974700;28;20211;-27
2023/10/17 14:13:49;;;;;;;8.70;7.45;;;16.20;99.90;;;;;;4986161;28;20192;-27
2023/10/17 14:16:15;;;;;;;10.53;7.80;;;16.00;99.90;;;;;;4976641;28;20211;-27
2023/10/17 14:18:46;;;;;;;9.63;8.33;;;15.80;99.90;;;;;;4990960;28;20172;-27
2023/10/17 14:24:04;;;;;;;9.38;7.55;;;15.60;99.90;;;;;;4989414;28;20234;-26
2023/10/17 14:26:30;;;;;;;8.90;7.70;;;15.50;99.90;;;;;;4990581;28;20237;-27
2023/10/17 14:28:57;;;;;;;8.48;7.68;;;15.40;99.90;;;;;;4991760;28;20461;-27
2023/10/17 14:31:26;;;;;;;9.87;6.70;;;15.10;99.90;;;;;;4988592;28;20212;-27
2023/10/17 14:33:52;;;;;;;8.90;7.53;;;15.10;99.90;;;;;;4985693;28;20192;-27
2023/10/17 14:36:27;;;;;;;9.40;6.67;;;15.20;99.90;;;;;;4988185;28;20230;-26
2023/10/17 14:38:54;;;;;;;9.27;8.33;;;15.30;99.90;;;;;;4987452;28;20231;-27
2023/10/17 14:41:20;;;;;;;10.17;8.27;;;15.30;99.90;;;;;;4985342;28;20212;-27
2023/10/17 14:43:51;;;;;;;12.20;8.53;;;15.30;99.90;;;;;;4984803;28;20185;-28
2023/10/17 14:46:20;;;;;;;10.70;8.03;;;15.40;99.90;;;;;;4986878;28;20176;-27
2023/10/17 14:48:47;;;;;;;11.27;8.50;;;15.40;99.90;;;;;;4985946;28;20177;-27
2023/10/17 14:51:13;;;;;;;10.87;9.27;;;15.30;99.90;;;;;;4988202;28;20208;-28
2023/10/17 14:53:43;;;;;;;11.77;8.90;;;15.30;99.90;;;;;;4970472;28;20192;-28
2023/10/17 14:56:12;;;;;;;10.50;8.17;;;15.30;99.90;;;;;;4986824;28;20184;-27
2023/10/17 14:58:55;;;;;;;9.63;8.63;;;15.30;99.90;;;;;;4997142;28;20692;-27
2023/10/17 15:01:22;;;;;;;10.80;8.20;;;15.40;99.90;;;;;;4987197;28;20223;-28
2023/10/17 15:03:50;;;;;;;9.63;8.23;;;15.40;99.90;;;;;;4974825;28;20184;-28
2023/10/17 15:06:16;;;;;;;11.10;8.90;;;15.40;99.90;;;;;;4990737;28;20215;-27
2023/10/17 15:08:42;;;;;;;11.70;8.90;;;15.40;99.90;;;;;;4990471;28;20180;-27
2023/10/17 15:11:10;;;;;;;10.87;8.40;;;15.40;99.90;;;;;;4993941;28;20239;-28
2023/10/17 15:13:37;;;;;;;11.23;8.60;;;15.30;99.90;;;;;;4989621;28;20203;-27
2023/10/17 15:16:16;;;;;;;10.80;8.67;;;15.20;99.90;;;;;;4993580;28;20180;-28
2023/10/17 15:18:43;;;;;;;9.00;7.60;;;15.10;99.90;;;;;;4994053;28;20194;-27
2023/10/17 15:21:11;;;;;;;9.33;7.80;;;15.20;99.90;;;;;;4996114;28;20200;-27
2023/10/17 15:23:41;;;;;;;9.57;7.90;;;15.10;99.90;;;;;;4997393;28;20192;-28
2023/10/17 15:26:10;;;;;;;10.37;9.27;;;15.00;99.90;;;;;;4987059;28;20180;-27
2023/10/17 15:28:50;;;;;;;10.80;8.23;;;14.80;99.90;;;;;;4989056;28;20202;-27
2023/10/17 15:31:16;;;;;;;8.93;6.87;;;14.70;99.90;;;;;;4986110;28;20231;-27
2023/10/17 15:33:44;;;;;;;8.47;6.93;;;14.60;99.90;;;;;;4965354;28;20210;-27
2023/10/17 15:36:11;;;;;;;7.93;6.50;;;14.50;99.90;;;;;;4989915;28;20250;-27
2023/10/17 15:38:41;;;;;;;8.27;6.67;;;14.40;99.90;;;;;;4990555;28;20212;-27